createdAt,value
2017-12-17T00:01:17.474Z,69.40
2017-12-17T00:03:45.833Z,69.40
2017-12-17T00:06:14.233Z,69.30
2017-12-17T00:08:42.733Z,69.20
2017-12-17T00:11:12.074Z,69.60
2017-12-17T00:13:40.814Z,69.60
2017-12-17T00:16:09.294Z,69.60
2017-12-17T00:18:37.753Z,70.00
2017-12-17T00:21:06.054Z,69.10
2017-12-17T00:23:34.634Z,69.60
2017-12-17T00:26:04.033Z,69.40
2017-12-17T00:28:32.273Z,68.80
2017-12-17T00:31:00.273Z,69.30
2017-12-17T00:33:28.597Z,68.80
2017-12-17T00:35:56.813Z,68.40
2017-12-17T00:38:25.033Z,68.70
2017-12-17T00:40:53.593Z,68.70
2017-12-17T00:43:22.773Z,69.00
2017-12-17T00:45:51.156Z,69.00
2017-12-17T00:48:19.353Z,69.10
2017-12-17T00:50:48.333Z,69.20
2017-12-17T00:53:17.133Z,69.10
2017-12-17T00:55:46.192Z,69.20
2017-12-17T00:58:14.153Z,69.10
2017-12-17T01:00:42.393Z,69.20
2017-12-17T01:03:11.033Z,69.40
2017-12-17T01:05:39.614Z,69.30
2017-12-17T01:08:08.153Z,69.70
2017-12-17T01:10:36.613Z,69.90
2017-12-17T01:13:05.052Z,69.80
2017-12-17T01:15:33.533Z,70.00
2017-12-17T01:18:02.094Z,69.90
2017-12-17T01:20:30.433Z,69.70
2017-12-17T01:22:58.873Z,69.90
2017-12-17T01:25:28.033Z,69.90
2017-12-17T01:27:56.434Z,69.90
2017-12-17T01:30:24.913Z,70.00
2017-12-17T01:32:53.500Z,70.00
2017-12-17T01:35:21.894Z,70.00
2017-12-17T01:37:50.853Z,70.40
2017-12-17T01:40:19.492Z,70.40
2017-12-17T01:42:47.933Z,70.40
2017-12-17T01:45:16.273Z,70.10
2017-12-17T01:47:44.973Z,70.20
2017-12-17T01:50:13.173Z,70.20
2017-12-17T01:52:41.333Z,69.20
2017-12-17T01:55:09.812Z,69.80
2017-12-17T01:57:38.193Z,69.90
2017-12-17T02:00:06.574Z,70.10
2017-12-17T02:02:35.673Z,69.80
2017-12-17T02:05:03.853Z,69.80
2017-12-17T02:07:32.233Z,69.80
2017-12-17T02:10:01.513Z,70.60
2017-12-17T02:12:29.799Z,70.10
2017-12-17T02:14:57.973Z,70.20
2017-12-17T02:17:26.352Z,70.20
2017-12-17T02:19:54.513Z,70.20
2017-12-17T02:22:23.153Z,70.10
2017-12-17T02:24:52.113Z,70.10
2017-12-17T02:27:21.232Z,70.20
2017-12-17T02:29:49.853Z,70.10
2017-12-17T02:32:18.434Z,70.20
2017-12-17T02:34:46.833Z,70.40
2017-12-17T02:37:15.633Z,70.40
2017-12-17T02:39:45.054Z,70.70
2017-12-17T02:42:14.433Z,70.60
2017-12-17T02:44:43.733Z,70.60
2017-12-17T02:47:12.133Z,70.50
2017-12-17T02:49:41.433Z,70.30
2017-12-17T02:52:10.833Z,70.30
2017-12-17T02:54:40.113Z,70.40
2017-12-17T02:57:09.493Z,70.10
2017-12-17T02:59:37.993Z,70.10
2017-12-17T03:02:06.474Z,70.00
2017-12-17T03:04:34.813Z,70.00
2017-12-17T03:07:03.076Z,69.70
2017-12-17T03:09:31.492Z,69.30
2017-12-17T03:11:59.673Z,69.60
2017-12-17T03:14:28.114Z,69.70
2017-12-17T03:16:56.633Z,69.80
2017-12-17T03:19:25.833Z,69.70
2017-12-17T03:21:54.313Z,69.70
2017-12-17T03:24:24.432Z,69.90
2017-12-17T03:26:52.694Z,69.30
2017-12-17T03:29:20.872Z,69.40
2017-12-17T03:31:49.352Z,69.60
2017-12-17T03:34:17.633Z,69.90
2017-12-17T03:36:46.013Z,69.80
2017-12-17T03:39:15.213Z,69.50
2017-12-17T03:41:43.473Z,69.60
2017-12-17T03:44:12.152Z,69.90
2017-12-17T03:46:41.233Z,69.40
2017-12-17T03:49:09.812Z,69.20
2017-12-17T03:51:38.472Z,69.30
2017-12-17T03:54:06.913Z,69.50
2017-12-17T03:56:36.073Z,69.00
2017-12-17T03:59:04.653Z,69.00
2017-12-17T04:01:33.293Z,69.10
2017-12-17T04:04:02.533Z,69.40
2017-12-17T04:06:30.932Z,69.40
2017-12-17T04:08:59.678Z,69.00
2017-12-17T04:11:28.293Z,69.20
2017-12-17T04:13:56.973Z,69.30
2017-12-17T04:16:25.573Z,69.50
2017-12-17T04:18:53.933Z,69.00
2017-12-17T04:21:22.533Z,69.30
2017-12-17T04:23:51.033Z,69.20
2017-12-17T04:26:20.533Z,69.20
2017-12-17T04:28:48.993Z,69.20
2017-12-17T04:31:17.172Z,68.70
2017-12-17T04:33:45.853Z,68.60
2017-12-17T04:36:14.193Z,69.00
2017-12-17T04:38:42.457Z,69.20
2017-12-17T04:41:11.673Z,69.30
2017-12-17T04:43:40.350Z,69.60
2017-12-17T04:46:09.111Z,69.70
2017-12-17T04:48:38.474Z,69.60
2017-12-17T04:51:06.970Z,69.60
2017-12-17T04:53:35.350Z,69.60
2017-12-17T04:56:03.690Z,69.50
2017-12-17T04:58:32.398Z,69.50
2017-12-17T05:01:00.830Z,69.70
2017-12-17T05:03:29.372Z,69.80
2017-12-17T05:05:57.830Z,68.80
2017-12-17T05:08:26.330Z,70.00
2017-12-17T05:10:54.854Z,69.30
2017-12-17T05:13:23.290Z,69.10
2017-12-17T05:15:51.870Z,69.40
2017-12-17T05:18:20.310Z,69.40
2017-12-17T05:20:49.450Z,69.70
2017-12-17T05:23:17.830Z,69.70
2017-12-17T05:25:46.729Z,69.50
2017-12-17T05:28:15.910Z,69.80
2017-12-17T05:30:44.970Z,70.30
2017-12-17T05:33:13.150Z,70.00
2017-12-17T05:35:41.550Z,69.60
2017-12-17T05:38:09.730Z,69.90
2017-12-17T05:40:38.830Z,70.10
2017-12-17T05:43:07.190Z,70.10
2017-12-17T05:45:35.770Z,69.80
2017-12-17T05:48:04.209Z,69.90
2017-12-17T05:50:32.629Z,70.10
2017-12-17T05:53:00.920Z,70.50
2017-12-17T05:55:29.190Z,70.20
2017-12-17T05:57:57.449Z,69.60
2017-12-17T06:00:25.826Z,69.40
2017-12-17T06:02:54.209Z,69.20
2017-12-17T06:05:22.910Z,69.00
2017-12-17T06:07:51.590Z,69.10
2017-12-17T06:10:21.195Z,67.70
2017-12-17T06:12:49.689Z,67.70
2017-12-17T06:15:18.950Z,67.80
2017-12-17T06:17:47.770Z,67.80
2017-12-17T06:20:17.090Z,67.20
2017-12-17T06:22:46.151Z,67.30
2017-12-17T06:25:14.710Z,67.20
2017-12-17T06:27:43.670Z,67.00
2017-12-17T06:30:11.952Z,66.60
2017-12-17T06:32:40.590Z,66.30
2017-12-17T06:35:08.930Z,66.00
2017-12-17T06:37:37.350Z,66.00
2017-12-17T06:40:05.690Z,65.70
2017-12-17T06:42:34.310Z,65.30
2017-12-17T06:45:02.590Z,65.60
2017-12-17T06:47:31.671Z,64.60
2017-12-17T06:50:00.870Z,65.20
2017-12-17T06:52:29.149Z,65.20
2017-12-17T06:54:57.529Z,65.10
2017-12-17T06:57:25.970Z,64.20
2017-12-17T06:59:54.170Z,63.80
2017-12-17T07:02:22.350Z,63.50
2017-12-17T07:04:50.829Z,63.70
2017-12-17T07:07:19.172Z,63.50
2017-12-17T07:09:47.370Z,63.20
2017-12-17T07:12:16.037Z,63.40
2017-12-17T07:14:44.550Z,63.70
2017-12-17T07:17:12.772Z,64.30
2017-12-17T07:19:41.090Z,63.10
2017-12-17T07:22:09.549Z,62.80
2017-12-17T07:24:38.369Z,62.40
2017-12-17T07:27:06.744Z,62.10
2017-12-17T07:29:35.212Z,62.00
2017-12-17T07:32:03.503Z,60.80
2017-12-17T07:34:31.971Z,61.70
2017-12-17T07:37:00.492Z,62.00
2017-12-17T07:39:28.692Z,60.80
2017-12-17T07:41:57.212Z,60.60
2017-12-17T07:44:25.732Z,60.40
2017-12-17T07:46:54.375Z,60.10
2017-12-17T07:49:22.892Z,59.90
2017-12-17T07:51:51.332Z,60.20
2017-12-17T07:54:19.741Z,60.30
2017-12-17T07:56:48.892Z,60.00
2017-12-17T07:59:16.932Z,60.00
2017-12-17T08:01:45.472Z,60.10
2017-12-17T08:04:14.672Z,60.60
2017-12-17T08:06:43.672Z,59.00
2017-12-17T08:09:12.832Z,60.50
2017-12-17T08:11:41.092Z,60.50
2017-12-17T08:14:09.412Z,60.60
2017-12-17T08:16:38.812Z,59.30
2017-12-17T08:19:07.352Z,59.50
2017-12-17T08:21:35.672Z,59.80
2017-12-17T08:24:03.832Z,59.00
2017-12-17T08:26:32.212Z,59.60
2017-12-17T08:29:00.692Z,59.50
2017-12-17T08:31:28.972Z,59.50
2017-12-17T08:33:57.232Z,59.60
2017-12-17T08:36:25.612Z,59.00
2017-12-17T08:38:53.992Z,59.30
2017-12-17T08:41:22.472Z,58.20
2017-12-17T08:43:50.851Z,58.00
2017-12-17T08:46:19.131Z,57.00
2017-12-17T08:48:48.432Z,57.60
2017-12-17T08:51:16.813Z,57.60
2017-12-17T08:53:45.192Z,57.70
2017-12-17T08:56:13.792Z,58.70
2017-12-17T08:58:43.092Z,57.60
2017-12-17T09:01:12.252Z,57.10
2017-12-17T09:03:40.692Z,57.10
2017-12-17T09:06:09.012Z,57.50
2017-12-17T09:08:37.452Z,56.30
2017-12-17T09:11:06.292Z,57.90
2017-12-17T09:13:34.673Z,57.60
2017-12-17T09:16:03.112Z,56.60
2017-12-17T09:18:31.632Z,56.80
2017-12-17T09:20:59.972Z,56.80
2017-12-17T09:23:28.392Z,58.10
2017-12-17T09:25:56.872Z,59.00
2017-12-17T09:28:26.032Z,56.50
2017-12-17T09:30:54.232Z,55.90
2017-12-17T09:33:22.713Z,56.80
2017-12-17T09:35:50.852Z,57.00
2017-12-17T09:38:19.073Z,56.20
2017-12-17T09:40:48.252Z,55.60
2017-12-17T09:43:16.532Z,55.60
2017-12-17T09:45:44.928Z,55.40
2017-12-17T09:48:13.492Z,55.60
2017-12-17T09:50:41.775Z,55.90
2017-12-17T09:53:11.171Z,55.40
2017-12-17T09:55:39.512Z,55.40
2017-12-17T09:58:08.532Z,54.60
2017-12-17T10:00:36.919Z,54.60
2017-12-17T10:03:06.051Z,55.40
2017-12-17T10:05:34.392Z,54.70
2017-12-17T10:08:02.752Z,54.70
2017-12-17T10:10:31.452Z,56.20
2017-12-17T10:12:59.571Z,55.80
2017-12-17T10:15:28.012Z,56.10
2017-12-17T10:17:57.352Z,55.10
2017-12-17T10:20:25.833Z,55.10
2017-12-17T10:22:54.292Z,55.30
2017-12-17T10:25:22.652Z,54.90
2017-12-17T10:27:52.012Z,58.90
2017-12-17T10:30:20.392Z,58.90
2017-12-17T10:32:49.052Z,58.50
2017-12-17T10:35:17.489Z,58.00
2017-12-17T10:37:46.572Z,56.90
2017-12-17T10:40:14.852Z,56.90
2017-12-17T10:42:43.292Z,55.70
2017-12-17T10:45:11.812Z,55.20
2017-12-17T10:47:40.252Z,55.20
2017-12-17T10:50:08.592Z,54.80
2017-12-17T10:52:37.632Z,55.00
2017-12-17T10:55:05.932Z,55.00
2017-12-17T10:57:34.112Z,55.80
2017-12-17T11:00:02.493Z,54.70
2017-12-17T11:02:30.973Z,55.10
2017-12-17T11:05:00.272Z,58.80
2017-12-17T11:07:28.752Z,58.60
2017-12-17T11:09:57.952Z,58.50
2017-12-17T11:12:26.172Z,58.90
2017-12-17T11:14:54.492Z,59.80
2017-12-17T11:17:23.073Z,59.00
2017-12-17T11:19:51.452Z,59.50
2017-12-17T11:22:19.612Z,58.40
2017-12-17T11:24:48.212Z,59.20
2017-12-17T11:27:16.792Z,59.80
2017-12-17T11:29:45.471Z,59.80
2017-12-17T11:32:13.852Z,58.30
2017-12-17T11:34:43.332Z,60.00
2017-12-17T11:37:11.692Z,60.40
2017-12-17T11:39:40.352Z,58.70
2017-12-17T11:42:09.114Z,59.00
2017-12-17T11:44:37.454Z,58.00
2017-12-17T11:47:06.072Z,60.70
2017-12-17T11:49:34.492Z,59.20
2017-12-17T11:52:02.832Z,59.60
2017-12-17T11:54:31.993Z,59.10
2017-12-17T11:57:00.712Z,59.10
2017-12-17T11:59:28.972Z,59.40
2017-12-17T12:01:57.432Z,59.50
2017-12-17T12:04:25.911Z,59.50
2017-12-17T12:06:54.232Z,60.10
2017-12-17T12:09:23.292Z,60.30
2017-12-17T12:11:51.692Z,60.30
2017-12-17T12:14:20.012Z,59.30
2017-12-17T12:16:48.553Z,60.50
2017-12-17T12:19:17.612Z,60.50
2017-12-17T12:21:46.032Z,60.40
2017-12-17T12:24:15.251Z,59.30
2017-12-17T12:26:43.392Z,59.30
2017-12-17T12:29:11.792Z,59.20
2017-12-17T12:31:40.252Z,59.20
2017-12-17T12:34:08.432Z,59.20
2017-12-17T12:36:37.533Z,59.40
2017-12-17T12:39:06.892Z,59.80
2017-12-17T12:41:35.652Z,60.40
2017-12-17T12:44:04.032Z,59.60
2017-12-17T12:46:32.672Z,59.90
2017-12-17T12:49:01.812Z,61.70
2017-12-17T12:51:30.132Z,60.90
2017-12-17T12:53:58.553Z,60.00
2017-12-17T12:56:27.032Z,60.70
2017-12-17T12:58:55.848Z,60.30
2017-12-17T13:01:24.415Z,60.50
2017-12-17T13:03:52.952Z,61.20
2017-12-17T13:06:21.340Z,60.60
2017-12-17T13:08:50.412Z,59.70
2017-12-17T13:11:19.672Z,60.30
2017-12-17T13:13:48.092Z,59.70
2017-12-17T13:16:16.432Z,60.60
2017-12-17T13:18:44.952Z,60.50
2017-12-17T13:21:13.232Z,60.20
2017-12-17T13:23:41.453Z,60.80
2017-12-17T13:26:09.553Z,61.70
2017-12-17T13:28:37.852Z,61.30
2017-12-17T13:31:06.232Z,61.40
2017-12-17T13:33:34.592Z,61.90
2017-12-17T13:36:03.112Z,62.00
2017-12-17T13:38:32.292Z,62.90
2017-12-17T13:41:00.673Z,63.00
2017-12-17T13:43:29.652Z,60.70
2017-12-17T13:45:57.791Z,60.70
2017-12-17T13:48:26.093Z,60.10
2017-12-17T13:50:54.372Z,60.50
2017-12-17T13:53:23.113Z,61.90
2017-12-17T13:55:51.673Z,62.40
2017-12-17T13:58:20.947Z,62.00
2017-12-17T14:00:49.733Z,61.80
2017-12-17T14:03:18.012Z,61.70
2017-12-17T14:05:46.202Z,62.80
2017-12-17T14:08:15.462Z,61.80
2017-12-17T14:10:43.781Z,61.80
2017-12-17T14:13:12.942Z,61.90
2017-12-17T14:15:41.360Z,61.90
2017-12-17T14:18:10.761Z,62.20
2017-12-17T14:20:39.821Z,62.60
2017-12-17T14:23:09.741Z,62.60
2017-12-17T14:25:38.188Z,62.70
2017-12-17T14:28:06.561Z,62.80
2017-12-17T14:30:36.135Z,60.70
2017-12-17T14:33:04.795Z,58.90
2017-12-17T14:35:33.178Z,59.80
2017-12-17T14:38:02.354Z,59.00
2017-12-17T14:40:32.414Z,57.50
2017-12-17T14:43:00.635Z,57.50
2017-12-17T14:45:28.974Z,57.30
2017-12-17T14:47:57.354Z,57.80
2017-12-17T14:50:25.674Z,57.30
2017-12-17T14:52:54.055Z,58.00
2017-12-17T14:55:22.194Z,59.70
2017-12-17T14:57:50.415Z,60.20
2017-12-17T15:00:18.914Z,60.80
2017-12-17T15:02:48.075Z,61.90
2017-12-17T15:05:16.355Z,61.90
2017-12-17T15:07:46.056Z,62.70
2017-12-17T15:10:14.852Z,62.70
2017-12-17T15:12:43.611Z,62.90
2017-12-17T15:15:12.407Z,62.90
2017-12-17T15:17:40.871Z,62.00
2017-12-17T15:20:09.195Z,60.20
2017-12-17T15:22:38.493Z,61.10
2017-12-17T15:25:06.851Z,60.40
2017-12-17T15:27:35.039Z,59.70
2017-12-17T15:30:03.511Z,58.50
2017-12-17T15:32:31.751Z,57.80
2017-12-17T15:35:00.170Z,56.80
2017-12-17T15:37:28.551Z,56.40
2017-12-17T15:39:56.931Z,55.60
2017-12-17T15:42:25.095Z,56.20
2017-12-17T15:44:53.671Z,58.20
2017-12-17T15:47:21.950Z,59.70
2017-12-17T15:49:51.287Z,61.10
2017-12-17T15:52:19.729Z,61.00
2017-12-17T15:54:48.468Z,61.20
2017-12-17T15:57:16.888Z,61.80
2017-12-17T15:59:45.328Z,61.70
2017-12-17T16:02:14.048Z,61.80
2017-12-17T16:04:42.428Z,60.90
2017-12-17T16:07:11.148Z,60.70
2017-12-17T16:09:40.608Z,61.70
2017-12-17T16:12:09.203Z,61.70
2017-12-17T16:14:37.909Z,62.50
2017-12-17T16:17:06.529Z,62.90
2017-12-17T16:19:35.049Z,63.70
2017-12-17T16:22:03.609Z,64.20
2017-12-17T16:24:31.809Z,63.90
2017-12-17T16:27:00.508Z,63.20
2017-12-17T16:29:28.969Z,63.10
2017-12-17T16:31:57.449Z,63.20
2017-12-17T16:34:25.948Z,63.30
2017-12-17T16:36:54.302Z,63.30
2017-12-17T16:39:22.648Z,63.40
2017-12-17T16:41:50.789Z,63.70
2017-12-17T16:44:19.868Z,63.50
2017-12-17T16:46:48.248Z,63.50
2017-12-17T16:49:16.409Z,63.70
2017-12-17T16:51:44.890Z,62.90
2017-12-17T16:54:12.968Z,63.20
2017-12-17T16:56:41.048Z,63.00
2017-12-17T16:59:09.408Z,63.20
2017-12-17T17:01:37.728Z,63.60
2017-12-17T17:04:06.389Z,63.20
2017-12-17T17:06:35.668Z,63.40
2017-12-17T17:09:06.829Z,63.60
2017-12-17T17:11:36.128Z,63.30
2017-12-17T17:14:04.769Z,63.30
2017-12-17T17:16:33.347Z,63.30
2017-12-17T17:19:01.748Z,62.80
2017-12-17T17:21:30.448Z,62.50
2017-12-17T17:23:58.728Z,63.20
2017-12-17T17:26:26.888Z,63.30
2017-12-17T17:28:55.548Z,62.90
2017-12-17T17:31:23.930Z,63.00
2017-12-17T17:33:52.650Z,62.70
2017-12-17T17:36:21.129Z,63.30
2017-12-17T17:38:49.408Z,64.20
2017-12-17T17:41:17.930Z,63.20
2017-12-17T17:43:46.128Z,63.20
2017-12-17T17:46:14.531Z,62.90
2017-12-17T17:48:42.769Z,62.70
2017-12-17T17:51:11.153Z,62.30
2017-12-17T17:53:39.368Z,62.20
2017-12-17T17:56:08.868Z,63.00
2017-12-17T17:58:37.029Z,63.00
2017-12-17T18:01:05.449Z,63.30
2017-12-17T18:03:33.629Z,63.70
2017-12-17T18:06:01.748Z,63.70
2017-12-17T18:08:30.268Z,63.50
2017-12-17T18:10:58.492Z,64.00
2017-12-17T18:13:27.566Z,64.00
2017-12-17T18:15:55.674Z,64.80
2017-12-17T18:18:24.206Z,64.30
2017-12-17T18:20:52.626Z,64.30
2017-12-17T18:23:20.826Z,64.70
2017-12-17T18:25:49.306Z,63.90
2017-12-17T18:28:17.667Z,63.40
2017-12-17T18:30:46.246Z,63.60
2017-12-17T18:33:14.868Z,63.80
2017-12-17T18:35:43.906Z,63.50
2017-12-17T18:38:12.347Z,63.50
2017-12-17T18:40:40.586Z,63.40
2017-12-17T18:43:08.928Z,63.10
2017-12-17T18:45:37.346Z,63.30
2017-12-17T18:48:05.627Z,63.60
2017-12-17T18:50:34.867Z,64.20
2017-12-17T18:53:03.006Z,64.20
2017-12-17T18:55:32.192Z,64.40
2017-12-17T18:58:01.389Z,64.20
2017-12-17T19:00:30.789Z,64.40
2017-12-17T19:02:59.307Z,64.40
2017-12-17T19:05:27.846Z,64.40
2017-12-17T19:07:56.366Z,64.00
2017-12-17T19:10:24.906Z,63.80
2017-12-17T19:12:53.186Z,63.70
2017-12-17T19:15:21.587Z,63.30
2017-12-17T19:17:50.907Z,62.50
2017-12-17T19:20:19.347Z,62.50
2017-12-17T19:22:48.866Z,63.70
2017-12-17T19:25:18.386Z,63.20
2017-12-17T19:27:47.246Z,63.20
2017-12-17T19:30:15.906Z,63.50
2017-12-17T19:32:44.485Z,63.30
2017-12-17T19:35:13.059Z,63.50
2017-12-17T19:37:41.558Z,63.40
2017-12-17T19:40:10.407Z,63.40
2017-12-17T19:42:38.979Z,63.60
2017-12-17T19:45:07.599Z,63.40
2017-12-17T19:47:36.399Z,63.30
2017-12-17T19:50:05.108Z,63.40
2017-12-17T19:52:33.659Z,63.40
2017-12-17T19:55:02.460Z,63.30
2017-12-17T19:57:31.039Z,63.30
2017-12-17T19:59:59.618Z,63.10
2017-12-17T20:02:28.119Z,62.80
2017-12-17T20:04:56.699Z,62.80
2017-12-17T20:07:25.119Z,62.80
2017-12-17T20:09:53.959Z,62.70
2017-12-17T20:12:22.500Z,62.90
2017-12-17T20:14:51.219Z,62.90
2017-12-17T20:17:20.119Z,62.80
2017-12-17T20:19:48.879Z,63.10
2017-12-17T20:22:17.720Z,63.40
2017-12-17T20:24:47.419Z,63.50
2017-12-17T20:27:17.580Z,63.20
2017-12-17T20:29:46.258Z,63.20
2017-12-17T20:32:15.319Z,63.20
2017-12-17T20:34:44.879Z,63.20
2017-12-17T20:37:13.541Z,63.20
2017-12-17T20:39:41.819Z,63.30
2017-12-17T20:42:10.138Z,63.30
2017-12-17T20:44:38.219Z,62.80
2017-12-17T20:47:06.845Z,63.00
2017-12-17T20:49:35.165Z,63.40
2017-12-17T20:52:03.665Z,63.20
2017-12-17T20:54:33.165Z,63.10
2017-12-17T20:57:02.465Z,63.40
2017-12-17T20:59:30.945Z,63.40
2017-12-17T21:01:59.524Z,63.50
2017-12-17T21:04:27.865Z,64.20
2017-12-17T21:06:56.166Z,64.00
2017-12-17T21:09:24.745Z,63.60
2017-12-17T21:11:53.026Z,63.10
2017-12-17T21:14:21.105Z,63.10
2017-12-17T21:16:49.485Z,63.20
2017-12-17T21:19:17.644Z,63.30
2017-12-17T21:21:46.125Z,64.30
2017-12-17T21:24:14.505Z,64.20
2017-12-17T21:26:42.885Z,64.20
2017-12-17T21:29:11.885Z,63.70
2017-12-17T21:31:40.365Z,63.70
2017-12-17T21:34:08.725Z,63.00
2017-12-17T21:36:36.905Z,63.00
2017-12-17T21:39:05.191Z,63.70
2017-12-17T21:41:34.586Z,63.90
2017-12-17T21:44:03.185Z,64.60
2017-12-17T21:46:32.525Z,63.00
2017-12-17T21:49:01.065Z,63.00
2017-12-17T21:51:30.507Z,62.30
2017-12-17T21:53:59.052Z,62.20
2017-12-17T21:56:28.304Z,62.40
2017-12-17T21:58:56.495Z,62.40
2017-12-17T22:01:24.785Z,61.70
2017-12-17T22:03:53.066Z,61.90
2017-12-17T22:06:22.266Z,61.70
2017-12-17T22:08:51.466Z,60.90
2017-12-17T22:11:20.405Z,61.80
2017-12-17T22:13:48.665Z,61.10
2017-12-17T22:16:17.005Z,61.00
2017-12-17T22:18:45.065Z,60.50
2017-12-17T22:21:13.446Z,60.80
2017-12-17T22:23:41.624Z,60.80
2017-12-17T22:26:09.706Z,61.40
2017-12-17T22:28:38.784Z,61.80
2017-12-17T22:31:07.045Z,61.80
2017-12-17T22:33:35.326Z,62.00
2017-12-17T22:36:03.505Z,62.20
2017-12-17T22:38:31.984Z,62.20
2017-12-17T22:41:00.165Z,62.60
2017-12-17T22:43:29.265Z,62.60
2017-12-17T22:45:58.645Z,62.70
2017-12-17T22:48:26.803Z,62.70
2017-12-17T22:50:55.205Z,62.50
2017-12-17T22:53:23.685Z,62.60
2017-12-17T22:55:51.724Z,62.90
2017-12-17T22:58:19.825Z,62.60
2017-12-17T23:00:48.684Z,62.50
2017-12-17T23:03:17.085Z,62.60
2017-12-17T23:05:45.545Z,62.30
2017-12-17T23:08:14.224Z,62.70
2017-12-17T23:10:42.525Z,62.20
2017-12-17T23:13:11.224Z,62.20
2017-12-17T23:15:39.525Z,62.40
2017-12-17T23:18:08.725Z,62.30
2017-12-17T23:20:38.104Z,62.00
2017-12-17T23:23:06.471Z,61.90
2017-12-17T23:25:34.785Z,61.90
2017-12-17T23:28:02.765Z,61.90
2017-12-17T23:30:31.405Z,62.10
2017-12-17T23:32:59.764Z,61.60
2017-12-17T23:35:28.206Z,61.70
2017-12-17T23:37:56.425Z,61.60
2017-12-17T23:40:24.604Z,61.40
2017-12-17T23:42:54.506Z,61.60
2017-12-17T23:45:23.025Z,61.50
2017-12-17T23:47:52.025Z,61.30
2017-12-17T23:50:20.365Z,61.30
2017-12-17T23:52:48.704Z,61.20
2017-12-17T23:55:17.125Z,61.30
2017-12-17T23:57:45.505Z,61.20
